Oakhill, Alabama
Current Conditions -  °F | °C
As of 8:56 AM on Tuesday 21 Oct 2014 (Local Time) from KPRN Reporting Station
Clear Clear  
Wind Chill: 62°   Ceiling: Unl
Heat Index: 62°   Visibility: 10mi
Dew Point: 52°   Wind: 5mph
Humidity: 70%   Direction: 360°N
Pressure: 30.06"   Gusts: NA
Location:  31.9217°N, 87.0814°W
Report Text: KPRN 211356Z AUTO 36004KT 10SM CLR 17/11 A3006 RMK AO2 SLP178 T01670111
Loading
Personal Weather Stations






























Interactive Weather Map New forecast layout! Learn more

10-Day Weather Forecast

Advertisements
Track Severe Weather on mobile